sensor_id;sensor_type;location;lat;lon;timestamp;P1;durP1;ratioP1;P2;durP2;ratioP2
34573;SDS011;20809;49.594;8.734;2023-03-01T00:02:24;18.70;;;9.77;;
34573;SDS011;20809;49.594;8.734;2023-03-01T00:05:25;17.80;;;9.75;;
34573;SDS011;20809;49.594;8.734;2023-03-01T00:08:26;18.38;;;9.73;;
34573;SDS011;20809;49.594;8.734;2023-03-01T00:11:28;23.17;;;9.75;;
34573;SDS011;20809;49.594;8.734;2023-03-01T00:14:30;16.77;;;8.73;;
34573;SDS011;20809;49.594;8.734;2023-03-01T00:17:31;16.90;;;8.77;;
34573;SDS011;20809;49.594;8.734;2023-03-01T00:20:32;15.23;;;9.18;;
34573;SDS011;20809;49.594;8.734;2023-03-01T00:23:35;13.80;;;8.77;;
34573;SDS011;20809;49.594;8.734;2023-03-01T00:26:37;18.50;;;9.23;;
34573;SDS011;20809;49.594;8.734;2023-03-01T00:29:38;18.50;;;9.68;;
34573;SDS011;20809;49.594;8.734;2023-03-01T00:32:38;17.05;;;9.77;;
34573;SDS011;20809;49.594;8.734;2023-03-01T00:35:39;17.85;;;9.48;;
34573;SDS011;20809;49.594;8.734;2023-03-01T00:38:41;17.27;;;9.25;;
34573;SDS011;20809;49.594;8.734;2023-03-01T00:41:44;13.50;;;8.50;;
34573;SDS011;20809;49.594;8.734;2023-03-01T00:44:45;17.80;;;9.27;;
34573;SDS011;20809;49.594;8.734;2023-03-01T00:47:46;14.73;;;8.82;;
34573;SDS011;20809;49.594;8.734;2023-03-01T00:50:48;16.58;;;9.38;;
34573;SDS011;20809;49.594;8.734;2023-03-01T00:53:55;16.92;;;8.98;;
34573;SDS011;20809;49.594;8.734;2023-03-01T00:56:58;15.25;;;8.80;;
34573;SDS011;20809;49.594;8.734;2023-03-01T00:59:59;19.48;;;10.40;;
34573;SDS011;20809;49.594;8.734;2023-03-01T01:03:00;18.92;;;9.35;;
34573;SDS011;20809;49.594;8.734;2023-03-01T01:06:01;20.58;;;10.15;;
34573;SDS011;20809;49.594;8.734;2023-03-01T01:09:09;18.92;;;9.98;;
34573;SDS011;20809;49.594;8.734;2023-03-01T01:12:17;15.18;;;9.75;;
34573;SDS011;20809;49.594;8.734;2023-03-01T01:15:17;16.52;;;9.00;;
34573;SDS011;20809;49.594;8.734;2023-03-01T01:18:18;18.15;;;9.35;;
34573;SDS011;20809;49.594;8.734;2023-03-01T01:21:19;20.02;;;9.68;;
34573;SDS011;20809;49.594;8.734;2023-03-01T01:24:22;19.30;;;9.80;;
34573;SDS011;20809;49.594;8.734;2023-03-01T01:27:23;18.50;;;10.52;;
34573;SDS011;20809;49.594;8.734;2023-03-01T01:30:24;19.25;;;10.85;;
34573;SDS011;20809;49.594;8.734;2023-03-01T01:33:24;17.17;;;9.30;;
34573;SDS011;20809;49.594;8.734;2023-03-01T01:39:27;17.60;;;9.63;;
34573;SDS011;20809;49.594;8.734;2023-03-01T01:42:28;16.95;;;9.55;;
34573;SDS011;20809;49.594;8.734;2023-03-01T01:48:42;17.35;;;9.68;;
34573;SDS011;20809;49.594;8.734;2023-03-01T01:51:57;17.13;;;9.68;;
34573;SDS011;20809;49.594;8.734;2023-03-01T01:59:12;23.02;;;10.43;;
34573;SDS011;20809;49.594;8.734;2023-03-01T02:02:13;19.27;;;10.52;;
34573;SDS011;20809;49.594;8.734;2023-03-01T02:05:17;18.15;;;10.60;;
34573;SDS011;20809;49.594;8.734;2023-03-01T02:08:29;19.00;;;10.45;;
34573;SDS011;20809;49.594;8.734;2023-03-01T02:11:33;19.52;;;10.35;;
34573;SDS011;20809;49.594;8.734;2023-03-01T02:14:37;18.05;;;10.40;;
34573;SDS011;20809;49.594;8.734;2023-03-01T02:17:38;18.83;;;10.65;;
34573;SDS011;20809;49.594;8.734;2023-03-01T02:20:50;19.55;;;10.48;;
34573;SDS011;20809;49.594;8.734;2023-03-01T02:23:58;19.80;;;10.27;;
34573;SDS011;20809;49.594;8.734;2023-03-01T02:27:22;20.77;;;10.40;;
34573;SDS011;20809;49.594;8.734;2023-03-01T02:30:32;20.63;;;10.00;;
34573;SDS011;20809;49.594;8.734;2023-03-01T02:33:34;24.58;;;11.25;;
34573;SDS011;20809;49.594;8.734;2023-03-01T02:36:38;18.90;;;10.70;;
34573;SDS011;20809;49.594;8.734;2023-03-01T02:39:47;19.17;;;10.82;;
34573;SDS011;20809;49.594;8.734;2023-03-01T02:42:58;21.20;;;11.52;;
34573;SDS011;20809;49.594;8.734;2023-03-01T02:46:05;19.50;;;10.93;;
34573;SDS011;20809;49.594;8.734;2023-03-01T02:49:24;20.35;;;10.88;;
34573;SDS011;20809;49.594;8.734;2023-03-01T02:52:34;21.88;;;11.32;;
34573;SDS011;20809;49.594;8.734;2023-03-01T02:55:44;24.30;;;10.93;;
34573;SDS011;20809;49.594;8.734;2023-03-01T02:58:48;21.38;;;11.45;;
34573;SDS011;20809;49.594;8.734;2023-03-01T03:01:51;21.90;;;11.32;;
34573;SDS011;20809;49.594;8.734;2023-03-01T03:04:52;20.00;;;10.75;;
34573;SDS011;20809;49.594;8.734;2023-03-01T03:07:53;20.05;;;11.50;;
34573;SDS011;20809;49.594;8.734;2023-03-01T03:10:54;25.08;;;11.68;;
34573;SDS011;20809;49.594;8.734;2023-03-01T03:13:55;20.65;;;11.65;;
34573;SDS011;20809;49.594;8.734;2023-03-01T03:16:56;22.90;;;11.60;;
34573;SDS011;20809;49.594;8.734;2023-03-01T03:19:56;17.92;;;10.45;;
34573;SDS011;20809;49.594;8.734;2023-03-01T03:22:57;24.25;;;12.10;;
34573;SDS011;20809;49.594;8.734;2023-03-01T03:25:58;18.52;;;11.35;;
34573;SDS011;20809;49.594;8.734;2023-03-01T03:28:59;21.90;;;11.43;;
34573;SDS011;20809;49.594;8.734;2023-03-01T03:32:00;20.67;;;10.75;;
34573;SDS011;20809;49.594;8.734;2023-03-01T03:35:01;18.27;;;10.43;;
34573;SDS011;20809;49.594;8.734;2023-03-01T03:38:10;20.75;;;11.10;;
34573;SDS011;20809;49.594;8.734;2023-03-01T03:41:16;21.65;;;11.38;;
34573;SDS011;20809;49.594;8.734;2023-03-01T03:44:20;20.15;;;10.93;;
34573;SDS011;20809;49.594;8.734;2023-03-01T03:47:27;22.88;;;11.95;;
34573;SDS011;20809;49.594;8.734;2023-03-01T03:50:32;19.42;;;11.00;;
34573;SDS011;20809;49.594;8.734;2023-03-01T03:53:33;20.08;;;11.32;;
34573;SDS011;20809;49.594;8.734;2023-03-01T03:56:34;20.30;;;12.15;;
34573;SDS011;20809;49.594;8.734;2023-03-01T03:59:35;20.42;;;10.73;;
34573;SDS011;20809;49.594;8.734;2023-03-01T04:02:35;21.77;;;11.50;;
34573;SDS011;20809;49.594;8.734;2023-03-01T04:05:37;19.67;;;11.55;;
34573;SDS011;20809;49.594;8.734;2023-03-01T04:08:38;23.92;;;12.07;;
34573;SDS011;20809;49.594;8.734;2023-03-01T04:11:40;22.77;;;12.27;;
34573;SDS011;20809;49.594;8.734;2023-03-01T04:14:41;21.20;;;11.77;;
34573;SDS011;20809;49.594;8.734;2023-03-01T04:17:44;19.30;;;10.55;;
34573;SDS011;20809;49.594;8.734;2023-03-01T04:20:46;21.15;;;11.43;;
34573;SDS011;20809;49.594;8.734;2023-03-01T04:23:48;23.70;;;13.10;;
34573;SDS011;20809;49.594;8.734;2023-03-01T04:26:52;22.08;;;11.57;;
34573;SDS011;20809;49.594;8.734;2023-03-01T04:29:53;24.33;;;12.27;;
34573;SDS011;20809;49.594;8.734;2023-03-01T04:32:56;23.67;;;12.25;;
34573;SDS011;20809;49.594;8.734;2023-03-01T04:35:57;25.38;;;12.50;;
34573;SDS011;20809;49.594;8.734;2023-03-01T04:38:58;21.27;;;12.45;;
34573;SDS011;20809;49.594;8.734;2023-03-01T04:41:59;22.58;;;12.07;;
34573;SDS011;20809;49.594;8.734;2023-03-01T04:45:00;22.63;;;12.70;;
34573;SDS011;20809;49.594;8.734;2023-03-01T04:48:01;24.63;;;12.65;;
34573;SDS011;20809;49.594;8.734;2023-03-01T04:51:03;21.10;;;11.25;;
34573;SDS011;20809;49.594;8.734;2023-03-01T04:54:05;22.20;;;12.20;;
34573;SDS011;20809;49.594;8.734;2023-03-01T04:57:08;25.65;;;13.20;;
34573;SDS011;20809;49.594;8.734;2023-03-01T05:00:10;19.90;;;11.98;;
34573;SDS011;20809;49.594;8.734;2023-03-01T05:03:24;22.45;;;12.70;;
34573;SDS011;20809;49.594;8.734;2023-03-01T05:06:28;21.15;;;12.40;;
34573;SDS011;20809;49.594;8.734;2023-03-01T05:12:29;18.75;;;11.95;;
34573;SDS011;20809;49.594;8.734;2023-03-01T05:15:33;24.80;;;12.30;;
34573;SDS011;20809;49.594;8.734;2023-03-01T05:18:38;23.48;;;12.70;;
34573;SDS011;20809;49.594;8.734;2023-03-01T05:21:42;23.95;;;11.90;;
34573;SDS011;20809;49.594;8.734;2023-03-01T05:25:02;25.23;;;12.40;;
34573;SDS011;20809;49.594;8.734;2023-03-01T05:28:03;20.73;;;11.75;;
34573;SDS011;20809;49.594;8.734;2023-03-01T05:31:04;22.75;;;12.68;;
34573;SDS011;20809;49.594;8.734;2023-03-01T05:34:09;21.30;;;12.02;;
34573;SDS011;20809;49.594;8.734;2023-03-01T05:37:13;22.48;;;12.27;;
34573;SDS011;20809;49.594;8.734;2023-03-01T05:40:15;21.17;;;12.48;;
34573;SDS011;20809;49.594;8.734;2023-03-01T05:43:19;21.60;;;12.40;;
34573;SDS011;20809;49.594;8.734;2023-03-01T05:46:20;23.67;;;12.63;;
34573;SDS011;20809;49.594;8.734;2023-03-01T05:49:24;21.90;;;11.48;;
34573;SDS011;20809;49.594;8.734;2023-03-01T05:52:25;25.45;;;12.30;;
34573;SDS011;20809;49.594;8.734;2023-03-01T05:55:27;27.10;;;12.50;;
34573;SDS011;20809;49.594;8.734;2023-03-01T05:58:29;23.90;;;12.05;;
34573;SDS011;20809;49.594;8.734;2023-03-01T06:01:31;22.52;;;12.00;;
34573;SDS011;20809;49.594;8.734;2023-03-01T06:04:33;26.67;;;13.07;;
34573;SDS011;20809;49.594;8.734;2023-03-01T06:07:34;22.77;;;12.27;;
34573;SDS011;20809;49.594;8.734;2023-03-01T06:10:35;25.65;;;12.23;;
34573;SDS011;20809;49.594;8.734;2023-03-01T06:13:39;24.35;;;12.40;;
34573;SDS011;20809;49.594;8.734;2023-03-01T06:16:41;20.75;;;12.30;;
34573;SDS011;20809;49.594;8.734;2023-03-01T06:19:42;22.67;;;12.77;;
34573;SDS011;20809;49.594;8.734;2023-03-01T06:22:43;20.08;;;11.68;;
34573;SDS011;20809;49.594;8.734;2023-03-01T06:25:44;24.25;;;12.05;;
34573;SDS011;20809;49.594;8.734;2023-03-01T06:28:45;22.83;;;11.93;;
34573;SDS011;20809;49.594;8.734;2023-03-01T06:31:46;24.52;;;12.00;;
34573;SDS011;20809;49.594;8.734;2023-03-01T06:34:47;21.20;;;11.25;;
34573;SDS011;20809;49.594;8.734;2023-03-01T06:37:49;26.42;;;13.40;;
34573;SDS011;20809;49.594;8.734;2023-03-01T06:40:53;19.50;;;12.40;;
34573;SDS011;20809;49.594;8.734;2023-03-01T06:43:56;23.58;;;12.90;;
34573;SDS011;20809;49.594;8.734;2023-03-01T06:46:57;21.45;;;12.43;;
34573;SDS011;20809;49.594;8.734;2023-03-01T06:49:59;22.85;;;12.35;;
34573;SDS011;20809;49.594;8.734;2023-03-01T06:53:03;24.40;;;12.50;;
34573;SDS011;20809;49.594;8.734;2023-03-01T06:56:04;20.10;;;12.25;;
34573;SDS011;20809;49.594;8.734;2023-03-01T07:02:08;20.47;;;11.57;;
34573;SDS011;20809;49.594;8.734;2023-03-01T07:05:13;23.73;;;11.82;;
34573;SDS011;20809;49.594;8.734;2023-03-01T07:08:14;21.98;;;11.90;;
34573;SDS011;20809;49.594;8.734;2023-03-01T07:11:15;16.98;;;10.30;;
34573;SDS011;20809;49.594;8.734;2023-03-01T07:17:17;21.57;;;12.33;;
34573;SDS011;20809;49.594;8.734;2023-03-01T07:20:19;21.23;;;12.00;;
34573;SDS011;20809;49.594;8.734;2023-03-01T07:23:24;20.40;;;11.80;;
34573;SDS011;20809;49.594;8.734;2023-03-01T07:26:25;21.15;;;11.73;;
34573;SDS011;20809;49.594;8.734;2023-03-01T07:29:26;19.52;;;12.00;;
34573;SDS011;20809;49.594;8.734;2023-03-01T07:32:28;20.55;;;11.98;;
34573;SDS011;20809;49.594;8.734;2023-03-01T07:35:29;19.77;;;11.32;;
34573;SDS011;20809;49.594;8.734;2023-03-01T07:38:30;22.08;;;12.07;;
34573;SDS011;20809;49.594;8.734;2023-03-01T07:41:31;22.58;;;13.18;;
34573;SDS011;20809;49.594;8.734;2023-03-01T07:44:32;22.33;;;12.90;;
34573;SDS011;20809;49.594;8.734;2023-03-01T07:47:34;22.52;;;12.35;;
34573;SDS011;20809;49.594;8.734;2023-03-01T07:50:35;20.52;;;11.93;;
34573;SDS011;20809;49.594;8.734;2023-03-01T07:53:36;22.67;;;12.55;;
34573;SDS011;20809;49.594;8.734;2023-03-01T07:56:37;19.52;;;10.75;;
34573;SDS011;20809;49.594;8.734;2023-03-01T07:59:38;19.50;;;11.48;;
34573;SDS011;20809;49.594;8.734;2023-03-01T08:02:39;19.70;;;11.27;;
34573;SDS011;20809;49.594;8.734;2023-03-01T08:05:41;21.02;;;11.52;;
34573;SDS011;20809;49.594;8.734;2023-03-01T08:08:42;17.63;;;11.75;;
34573;SDS011;20809;49.594;8.734;2023-03-01T08:11:43;20.00;;;11.73;;
34573;SDS011;20809;49.594;8.734;2023-03-01T08:14:44;20.65;;;11.48;;
34573;SDS011;20809;49.594;8.734;2023-03-01T08:17:45;19.63;;;11.63;;
34573;SDS011;20809;49.594;8.734;2023-03-01T08:20:46;22.38;;;11.32;;
34573;SDS011;20809;49.594;8.734;2023-03-01T08:23:47;18.27;;;11.57;;
34573;SDS011;20809;49.594;8.734;2023-03-01T08:26:48;23.90;;;11.50;;
34573;SDS011;20809;49.594;8.734;2023-03-01T08:29:49;23.33;;;12.15;;
34573;SDS011;20809;49.594;8.734;2023-03-01T08:32:50;21.50;;;11.52;;
34573;SDS011;20809;49.594;8.734;2023-03-01T08:35:50;20.27;;;12.15;;
34573;SDS011;20809;49.594;8.734;2023-03-01T08:38:52;25.42;;;12.50;;
34573;SDS011;20809;49.594;8.734;2023-03-01T08:41:53;24.95;;;12.18;;
34573;SDS011;20809;49.594;8.734;2023-03-01T08:44:54;20.27;;;11.57;;
34573;SDS011;20809;49.594;8.734;2023-03-01T08:47:54;21.55;;;11.95;;
34573;SDS011;20809;49.594;8.734;2023-03-01T08:50:55;19.55;;;12.10;;
34573;SDS011;20809;49.594;8.734;2023-03-01T08:53:56;19.83;;;12.05;;
34573;SDS011;20809;49.594;8.734;2023-03-01T08:56:57;20.02;;;11.85;;
34573;SDS011;20809;49.594;8.734;2023-03-01T08:59:59;24.38;;;12.85;;
34573;SDS011;20809;49.594;8.734;2023-03-01T09:03:03;21.50;;;12.60;;
34573;SDS011;20809;49.594;8.734;2023-03-01T09:06:04;23.10;;;13.23;;
34573;SDS011;20809;49.594;8.734;2023-03-01T09:09:10;23.08;;;13.00;;
34573;SDS011;20809;49.594;8.734;2023-03-01T09:12:15;23.10;;;12.35;;
34573;SDS011;20809;49.594;8.734;2023-03-01T09:15:16;21.38;;;12.68;;
34573;SDS011;20809;49.594;8.734;2023-03-01T09:18:17;19.77;;;11.68;;
34573;SDS011;20809;49.594;8.734;2023-03-01T09:21:18;22.08;;;12.52;;
34573;SDS011;20809;49.594;8.734;2023-03-01T09:24:20;19.90;;;11.60;;
34573;SDS011;20809;49.594;8.734;2023-03-01T09:27:23;23.52;;;12.95;;
34573;SDS011;20809;49.594;8.734;2023-03-01T09:30:25;19.30;;;11.63;;
34573;SDS011;20809;49.594;8.734;2023-03-01T09:33:26;21.35;;;12.48;;
34573;SDS011;20809;49.594;8.734;2023-03-01T09:36:28;21.13;;;12.90;;
34573;SDS011;20809;49.594;8.734;2023-03-01T09:39:29;20.52;;;13.48;;
34573;SDS011;20809;49.594;8.734;2023-03-01T09:42:30;19.67;;;13.20;;
34573;SDS011;20809;49.594;8.734;2023-03-01T09:45:34;21.00;;;11.93;;
34573;SDS011;20809;49.594;8.734;2023-03-01T09:48:46;24.20;;;11.82;;
34573;SDS011;20809;49.594;8.734;2023-03-01T09:51:55;22.73;;;13.63;;
34573;SDS011;20809;49.594;8.734;2023-03-01T09:54:56;23.20;;;13.10;;
34573;SDS011;20809;49.594;8.734;2023-03-01T09:58:02;22.70;;;13.68;;
34573;SDS011;20809;49.594;8.734;2023-03-01T10:01:10;22.77;;;12.43;;
34573;SDS011;20809;49.594;8.734;2023-03-01T10:10:51;23.42;;;13.30;;
34573;SDS011;20809;49.594;8.734;2023-03-01T10:20:50;20.67;;;12.65;;
34573;SDS011;20809;49.594;8.734;2023-03-01T10:23:54;20.23;;;12.68;;
34573;SDS011;20809;49.594;8.734;2023-03-01T10:26:57;20.45;;;12.77;;
34573;SDS011;20809;49.594;8.734;2023-03-01T10:30:05;20.98;;;13.48;;
34573;SDS011;20809;49.594;8.734;2023-03-01T10:33:17;20.40;;;12.38;;
34573;SDS011;20809;49.594;8.734;2023-03-01T10:36:28;22.55;;;13.52;;
34573;SDS011;20809;49.594;8.734;2023-03-01T10:39:33;20.08;;;12.57;;
34573;SDS011;20809;49.594;8.734;2023-03-01T10:42:34;19.92;;;12.18;;
34573;SDS011;20809;49.594;8.734;2023-03-01T10:45:40;21.65;;;12.50;;
34573;SDS011;20809;49.594;8.734;2023-03-01T10:48:41;23.00;;;13.02;;
34573;SDS011;20809;49.594;8.734;2023-03-01T10:51:43;19.58;;;12.77;;
34573;SDS011;20809;49.594;8.734;2023-03-01T10:54:53;19.75;;;12.85;;
34573;SDS011;20809;49.594;8.734;2023-03-01T11:04:22;22.40;;;13.07;;
34573;SDS011;20809;49.594;8.734;2023-03-01T11:07:23;22.88;;;11.98;;
34573;SDS011;20809;49.594;8.734;2023-03-01T11:10:25;19.67;;;12.65;;
34573;SDS011;20809;49.594;8.734;2023-03-01T11:13:26;20.00;;;12.63;;
34573;SDS011;20809;49.594;8.734;2023-03-01T11:16:31;20.42;;;11.68;;
34573;SDS011;20809;49.594;8.734;2023-03-01T11:19:33;17.17;;;11.93;;
34573;SDS011;20809;49.594;8.734;2023-03-01T11:22:34;19.73;;;13.07;;
34573;SDS011;20809;49.594;8.734;2023-03-01T11:25:36;18.83;;;12.13;;
34573;SDS011;20809;49.594;8.734;2023-03-01T11:28:39;20.88;;;12.32;;
34573;SDS011;20809;49.594;8.734;2023-03-01T11:31:42;22.17;;;12.23;;
34573;SDS011;20809;49.594;8.734;2023-03-01T11:41:06;20.67;;;12.02;;
34573;SDS011;20809;49.594;8.734;2023-03-01T11:44:14;21.60;;;11.80;;
34573;SDS011;20809;49.594;8.734;2023-03-01T11:47:29;19.10;;;12.23;;
34573;SDS011;20809;49.594;8.734;2023-03-01T11:53:48;18.27;;;11.90;;
34573;SDS011;20809;49.594;8.734;2023-03-01T11:57:03;17.02;;;11.18;;
34573;SDS011;20809;49.594;8.734;2023-03-01T12:10:23;17.88;;;11.95;;
34573;SDS011;20809;49.594;8.734;2023-03-01T12:23:26;18.38;;;11.77;;
34573;SDS011;20809;49.594;8.734;2023-03-01T12:36:46;22.13;;;12.73;;
34573;SDS011;20809;49.594;8.734;2023-03-01T12:43:44;19.10;;;12.25;;
34573;SDS011;20809;49.594;8.734;2023-03-01T12:47:10;21.15;;;11.85;;
34573;SDS011;20809;49.594;8.734;2023-03-01T12:50:19;17.25;;;11.25;;
34573;SDS011;20809;49.594;8.734;2023-03-01T12:53:26;20.15;;;11.10;;
34573;SDS011;20809;49.594;8.734;2023-03-01T12:56:31;22.10;;;11.15;;
34573;SDS011;20809;49.594;8.734;2023-03-01T13:00:21;15.27;;;10.57;;
34573;SDS011;20809;49.594;8.734;2023-03-01T13:03:16;17.08;;;11.38;;
34573;SDS011;20809;49.594;8.734;2023-03-01T13:06:29;17.80;;;10.75;;
34573;SDS011;20809;49.594;8.734;2023-03-01T13:19:30;17.05;;;10.05;;
34573;SDS011;20809;49.594;8.734;2023-03-01T13:22:35;18.15;;;10.95;;
34573;SDS011;20809;49.594;8.734;2023-03-01T13:29:11;18.65;;;10.73;;
34573;SDS011;20809;49.594;8.734;2023-03-01T13:32:27;13.98;;;9.50;;
34573;SDS011;20809;49.594;8.734;2023-03-01T13:35:40;17.45;;;9.85;;
34573;SDS011;20809;49.594;8.734;2023-03-01T13:38:55;16.38;;;9.98;;
34573;SDS011;20809;49.594;8.734;2023-03-01T13:42:00;15.25;;;9.82;;
34573;SDS011;20809;49.594;8.734;2023-03-01T13:45:01;13.98;;;9.05;;
34573;SDS011;20809;49.594;8.734;2023-03-01T13:48:26;14.77;;;9.48;;
34573;SDS011;20809;49.594;8.734;2023-03-01T13:51:27;16.00;;;9.63;;
34573;SDS011;20809;49.594;8.734;2023-03-01T13:54:31;16.42;;;10.40;;
34573;SDS011;20809;49.594;8.734;2023-03-01T13:57:33;11.15;;;8.23;;
34573;SDS011;20809;49.594;8.734;2023-03-01T14:00:37;13.68;;;8.95;;
34573;SDS011;20809;49.594;8.734;2023-03-01T14:03:42;13.45;;;8.77;;
34573;SDS011;20809;49.594;8.734;2023-03-01T14:06:43;14.25;;;9.27;;
34573;SDS011;20809;49.594;8.734;2023-03-01T14:09:45;19.52;;;9.95;;
34573;SDS011;20809;49.594;8.734;2023-03-01T14:12:55;13.10;;;8.18;;
34573;SDS011;20809;49.594;8.734;2023-03-01T14:19:28;14.43;;;9.35;;
34573;SDS011;20809;49.594;8.734;2023-03-01T14:22:32;12.43;;;7.90;;
34573;SDS011;20809;49.594;8.734;2023-03-01T14:25:35;12.85;;;8.68;;
34573;SDS011;20809;49.594;8.734;2023-03-01T14:28:38;13.40;;;7.90;;
34573;SDS011;20809;49.594;8.734;2023-03-01T14:31:39;15.15;;;9.43;;
34573;SDS011;20809;49.594;8.734;2023-03-01T14:34:43;13.52;;;8.73;;
34573;SDS011;20809;49.594;8.734;2023-03-01T14:37:45;13.20;;;8.45;;
34573;SDS011;20809;49.594;8.734;2023-03-01T14:40:46;15.35;;;8.73;;
34573;SDS011;20809;49.594;8.734;2023-03-01T14:43:58;12.52;;;8.65;;
34573;SDS011;20809;49.594;8.734;2023-03-01T14:50:05;15.70;;;8.80;;
34573;SDS011;20809;49.594;8.734;2023-03-01T14:53:21;12.40;;;7.05;;
34573;SDS011;20809;49.594;8.734;2023-03-01T14:59:28;12.52;;;8.27;;
34573;SDS011;20809;49.594;8.734;2023-03-01T15:02:29;11.50;;;7.60;;
34573;SDS011;20809;49.594;8.734;2023-03-01T15:05:32;13.60;;;8.55;;
34573;SDS011;20809;49.594;8.734;2023-03-01T15:08:34;12.02;;;7.35;;
34573;SDS011;20809;49.594;8.734;2023-03-01T15:11:37;12.52;;;7.15;;
34573;SDS011;20809;49.594;8.734;2023-03-01T15:14:43;11.05;;;6.75;;
34573;SDS011;20809;49.594;8.734;2023-03-01T15:17:44;17.48;;;8.35;;
34573;SDS011;20809;49.594;8.734;2023-03-01T15:20:51;13.27;;;7.60;;
34573;SDS011;20809;49.594;8.734;2023-03-01T15:23:54;10.52;;;7.55;;
34573;SDS011;20809;49.594;8.734;2023-03-01T15:26:58;10.95;;;7.63;;
34573;SDS011;20809;49.594;8.734;2023-03-01T15:30:06;10.77;;;7.13;;
34573;SDS011;20809;49.594;8.734;2023-03-01T15:33:28;12.10;;;7.78;;
34573;SDS011;20809;49.594;8.734;2023-03-01T15:39:53;10.70;;;6.55;;
34573;SDS011;20809;49.594;8.734;2023-03-01T15:42:55;10.20;;;6.70;;
34573;SDS011;20809;49.594;8.734;2023-03-01T15:45:56;10.95;;;7.15;;
34573;SDS011;20809;49.594;8.734;2023-03-01T15:48:59;10.95;;;6.25;;
34573;SDS011;20809;49.594;8.734;2023-03-01T15:52:02;12.00;;;7.30;;
34573;SDS011;20809;49.594;8.734;2023-03-01T15:55:04;12.88;;;6.97;;
34573;SDS011;20809;49.594;8.734;2023-03-01T15:58:18;11.02;;;7.07;;
34573;SDS011;20809;49.594;8.734;2023-03-01T16:01:24;11.40;;;6.78;;
34573;SDS011;20809;49.594;8.734;2023-03-01T16:04:25;9.60;;;6.63;;
34573;SDS011;20809;49.594;8.734;2023-03-01T16:07:26;11.95;;;6.85;;
34573;SDS011;20809;49.594;8.734;2023-03-01T16:10:28;11.32;;;6.95;;
34573;SDS011;20809;49.594;8.734;2023-03-01T16:13:30;9.25;;;6.30;;
34573;SDS011;20809;49.594;8.734;2023-03-01T16:19:32;10.87;;;6.60;;
34573;SDS011;20809;49.594;8.734;2023-03-01T16:22:33;10.15;;;7.00;;
34573;SDS011;20809;49.594;8.734;2023-03-01T16:25:34;15.70;;;7.65;;
34573;SDS011;20809;49.594;8.734;2023-03-01T16:28:35;13.15;;;7.00;;
34573;SDS011;20809;49.594;8.734;2023-03-01T16:31:36;10.38;;;7.82;;
34573;SDS011;20809;49.594;8.734;2023-03-01T16:34:37;8.18;;;6.28;;
34573;SDS011;20809;49.594;8.734;2023-03-01T16:37:38;16.88;;;7.78;;
34573;SDS011;20809;49.594;8.734;2023-03-01T16:40:38;9.65;;;6.50;;
34573;SDS011;20809;49.594;8.734;2023-03-01T16:43:39;13.15;;;6.53;;
34573;SDS011;20809;49.594;8.734;2023-03-01T16:49:41;11.47;;;6.80;;
34573;SDS011;20809;49.594;8.734;2023-03-01T16:52:43;15.57;;;6.93;;
34573;SDS011;20809;49.594;8.734;2023-03-01T16:55:44;10.63;;;6.75;;
34573;SDS011;20809;49.594;8.734;2023-03-01T16:58:45;14.25;;;7.65;;
34573;SDS011;20809;49.594;8.734;2023-03-01T17:01:46;13.82;;;7.90;;
34573;SDS011;20809;49.594;8.734;2023-03-01T17:04:53;11.15;;;6.70;;
34573;SDS011;20809;49.594;8.734;2023-03-01T17:07:55;14.07;;;8.70;;
34573;SDS011;20809;49.594;8.734;2023-03-01T17:11:07;11.82;;;8.20;;
34573;SDS011;20809;49.594;8.734;2023-03-01T17:14:12;11.63;;;7.60;;
34573;SDS011;20809;49.594;8.734;2023-03-01T17:17:15;10.45;;;7.97;;
34573;SDS011;20809;49.594;8.734;2023-03-01T17:20:16;14.43;;;8.75;;
34573;SDS011;20809;49.594;8.734;2023-03-01T17:23:17;14.25;;;9.30;;
34573;SDS011;20809;49.594;8.734;2023-03-01T17:26:21;14.02;;;9.10;;
34573;SDS011;20809;49.594;8.734;2023-03-01T17:29:22;14.35;;;7.43;;
34573;SDS011;20809;49.594;8.734;2023-03-01T17:32:23;15.48;;;9.73;;
34573;SDS011;20809;49.594;8.734;2023-03-01T17:35:24;17.75;;;8.80;;
34573;SDS011;20809;49.594;8.734;2023-03-01T17:38:25;32.25;;;15.27;;
34573;SDS011;20809;49.594;8.734;2023-03-01T17:44:27;11.60;;;7.82;;
34573;SDS011;20809;49.594;8.734;2023-03-01T17:47:28;12.25;;;7.35;;
34573;SDS011;20809;49.594;8.734;2023-03-01T17:50:29;11.95;;;7.30;;
34573;SDS011;20809;49.594;8.734;2023-03-01T17:53:30;15.15;;;8.15;;
34573;SDS011;20809;49.594;8.734;2023-03-01T17:56:30;17.63;;;8.88;;
34573;SDS011;20809;49.594;8.734;2023-03-01T17:59:35;14.13;;;8.88;;
34573;SDS011;20809;49.594;8.734;2023-03-01T18:02:36;15.70;;;9.00;;
34573;SDS011;20809;49.594;8.734;2023-03-01T18:05:36;16.77;;;9.70;;
34573;SDS011;20809;49.594;8.734;2023-03-01T18:08:37;12.50;;;8.82;;
34573;SDS011;20809;49.594;8.734;2023-03-01T18:11:38;17.75;;;10.48;;
34573;SDS011;20809;49.594;8.734;2023-03-01T18:14:41;19.42;;;10.30;;
34573;SDS011;20809;49.594;8.734;2023-03-01T18:17:41;15.90;;;8.98;;
34573;SDS011;20809;49.594;8.734;2023-03-01T18:20:42;16.63;;;10.77;;
34573;SDS011;20809;49.594;8.734;2023-03-01T18:23:43;17.33;;;9.68;;
34573;SDS011;20809;49.594;8.734;2023-03-01T18:26:44;18.38;;;9.98;;
34573;SDS011;20809;49.594;8.734;2023-03-01T18:29:45;17.23;;;9.93;;
34573;SDS011;20809;49.594;8.734;2023-03-01T18:32:45;16.10;;;9.73;;
34573;SDS011;20809;49.594;8.734;2023-03-01T18:35:46;19.35;;;9.77;;
34573;SDS011;20809;49.594;8.734;2023-03-01T18:38:48;15.93;;;10.15;;
34573;SDS011;20809;49.594;8.734;2023-03-01T18:41:49;14.10;;;9.73;;
34573;SDS011;20809;49.594;8.734;2023-03-01T18:44:50;14.13;;;8.85;;
34573;SDS011;20809;49.594;8.734;2023-03-01T18:47:52;15.63;;;9.32;;
34573;SDS011;20809;49.594;8.734;2023-03-01T18:50:53;23.40;;;12.20;;
34573;SDS011;20809;49.594;8.734;2023-03-01T18:53:57;23.77;;;12.40;;
34573;SDS011;20809;49.594;8.734;2023-03-01T18:56:58;21.98;;;11.98;;
34573;SDS011;20809;49.594;8.734;2023-03-01T19:00:00;19.98;;;11.00;;
34573;SDS011;20809;49.594;8.734;2023-03-01T19:03:04;18.52;;;10.15;;
34573;SDS011;20809;49.594;8.734;2023-03-01T19:09:07;19.52;;;10.98;;
34573;SDS011;20809;49.594;8.734;2023-03-01T19:12:10;18.73;;;10.65;;
34573;SDS011;20809;49.594;8.734;2023-03-01T19:15:13;16.77;;;11.07;;
34573;SDS011;20809;49.594;8.734;2023-03-01T19:18:15;21.20;;;10.70;;
34573;SDS011;20809;49.594;8.734;2023-03-01T19:24:19;24.85;;;13.05;;
34573;SDS011;20809;49.594;8.734;2023-03-01T19:27:20;33.38;;;17.75;;
34573;SDS011;20809;49.594;8.734;2023-03-01T19:30:21;19.65;;;10.65;;
34573;SDS011;20809;49.594;8.734;2023-03-01T19:33:27;20.85;;;11.35;;
34573;SDS011;20809;49.594;8.734;2023-03-01T19:36:29;18.35;;;10.98;;
34573;SDS011;20809;49.594;8.734;2023-03-01T19:39:34;19.60;;;11.02;;
34573;SDS011;20809;49.594;8.734;2023-03-01T19:42:37;17.65;;;9.85;;
34573;SDS011;20809;49.594;8.734;2023-03-01T19:45:38;17.52;;;11.35;;
34573;SDS011;20809;49.594;8.734;2023-03-01T19:48:39;18.58;;;10.80;;
34573;SDS011;20809;49.594;8.734;2023-03-01T19:51:41;17.13;;;9.68;;
34573;SDS011;20809;49.594;8.734;2023-03-01T19:54:42;18.08;;;9.80;;
34573;SDS011;20809;49.594;8.734;2023-03-01T19:57:45;22.50;;;10.82;;
34573;SDS011;20809;49.594;8.734;2023-03-01T20:00:48;17.80;;;10.40;;
34573;SDS011;20809;49.594;8.734;2023-03-01T20:03:56;19.05;;;10.35;;